Time;durP1;ratioP1;P1;durP2;ratioP2;P2;SDS_P1;SDS_P2;PMS_P1;PMS_P2;Temp;Humidity;BMP_temperature;BMP_pressure;BME280_temperature;BME280_humidity;BME280_pressure;Samples;Min_cycle;Max_cycle;Signal;HPM_P1;HPM_P2
2021/01/04 00:02:45;;;;;;;12.40;10.48;;;;;;;4.07;100.00;102088.03;5072091;28;20075;-65
2021/01/04 00:05:28;;;;;;;15.00;10.63;;;;;;;4.07;100.00;102088.03;5071838;28;20043;-65
2021/01/04 00:08:51;;;;;;;16.80;11.93;;;;;;;4.07;100.00;102082.63;5071965;28;20031;-65
2021/01/04 00:11:27;;;;;;;13.73;9.90;;;;;;;4.08;100.00;102084.31;4970706;28;20099;-64
2021/01/04 00:14:26;;;;;;;13.07;9.68;;;;;;;4.08;100.00;102084.31;4970567;28;20512;-65
2021/01/04 00:17:10;;;;;;;13.40;10.32;;;;;;;4.06;100.00;102076.38;5028672;28;20051;-66
2021/01/04 00:19:35;;;;;;;11.98;9.00;;;;;;;4.07;100.00;102088.03;5071643;28;20036;-65
2021/01/04 00:22:14;;;;;;;12.73;9.98;;;;;;;4.07;100.00;102088.88;5071686;28;20066;-65
2021/01/04 00:24:49;;;;;;;11.65;9.48;;;;;;;4.08;100.00;102089.72;5071611;28;20517;-65
2021/01/04 00:27:39;;;;;;;15.00;9.63;;;;;;;4.06;100.00;102087.19;5071665;28;20055;-66
2021/01/04 00:30:18;;;;;;;13.13;9.88;;;;;;;4.08;100.00;102079.75;5071338;28;20036;-65
2021/01/04 00:32:45;;;;;;;14.15;10.05;;;;;;;4.11;100.00;102083.97;5071349;28;20060;-65
2021/01/04 00:35:14;;;;;;;15.25;10.50;;;;;;;4.11;100.00;102089.38;5071427;28;20028;-65
2021/01/04 00:37:59;;;;;;;15.88;9.90;;;;;;;4.11;100.00;102083.97;5070711;28;20032;-66
2021/01/04 00:40:31;;;;;;;13.97;10.60;;;;;;;4.11;100.00;102086.66;5071294;28;20027;-65
2021/01/04 00:42:57;;;;;;;15.27;11.40;;;;;;;4.11;100.00;102083.97;5071179;28;20052;-65
2021/01/04 00:45:37;;;;;;;15.57;10.25;;;;;;;4.10;100.00;102087.69;5071123;28;20487;-65
2021/01/04 00:48:05;;;;;;;15.45;10.93;;;;;;;4.10;100.00;102093.09;5071223;28;20390;-65
2021/01/04 00:50:53;;;;;;;18.15;11.20;;;;;;;4.10;100.00;102087.69;5071068;28;20040;-65
2021/01/04 00:53:38;;;;;;;17.27;11.15;;;;;;;4.09;100.00;102080.59;5071206;28;20059;-65
2021/01/04 00:56:26;;;;;;;16.55;11.60;;;;;;;4.10;100.00;102087.69;5071106;28;20411;-65
2021/01/04 00:59:04;;;;;;;15.32;11.18;;;;;;;4.09;100.00;102086.00;5071019;28;20477;-65
2021/01/04 01:02:03;;;;;;;18.20;11.07;;;;;;;4.09;100.00;102091.41;5071031;28;20044;-66
2021/01/04 01:05:03;;;;;;;17.48;11.13;;;;;;;4.09;100.00;102089.53;5070947;28;20379;-65
2021/01/04 01:07:31;;;;;;;19.02;12.05;;;;;;;4.10;100.00;102093.09;5071054;28;20398;-66
2021/01/04 01:10:01;;;;;;;16.40;11.70;;;;;;;4.11;100.00;102086.66;5070943;28;20085;-66
2021/01/04 01:12:56;;;;;;;18.92;11.85;;;;;;;4.10;100.00;102083.13;5070953;28;20406;-65
2021/01/04 01:15:27;;;;;;;17.80;12.43;;;;;;;4.09;100.00;102089.53;4999257;28;20424;-65
2021/01/04 01:18:11;;;;;;;19.42;13.10;;;;;;;4.08;100.00;102078.91;5070837;28;20040;-66
2021/01/04 01:20:40;;;;;;;20.02;13.70;;;;;;;4.08;100.00;102087.00;5070801;28;20446;-65
2021/01/04 01:23:09;;;;;;;16.58;12.27;;;;;;;4.07;100.00;102088.03;5070770;28;20087;-65
2021/01/04 01:26:12;;;;;;;19.30;12.85;;;;;;;4.06;100.00;102092.59;5070867;28;20459;-65
2021/01/04 01:28:38;;;;;;;18.13;11.70;;;;;;;4.05;100.00;102100.88;5070667;28;20407;-65
2021/01/04 01:31:19;;;;;;;17.38;12.00;;;;;;;4.04;100.00;102105.44;5070823;28;20029;-63
2021/01/04 01:34:22;;;;;;;17.38;12.57;;;;;;;4.05;100.00;102103.56;5070682;28;20036;-63
2021/01/04 01:37:06;;;;;;;17.27;11.60;;;;;;;4.04;100.00;102104.59;5032897;28;20045;-63
2021/01/04 01:39:47;;;;;;;18.13;11.57;;;;;;;4.02;100.00;102102.06;5070591;28;20454;-62
2021/01/04 01:42:34;;;;;;;18.15;11.88;;;;;;;4.02;100.00;102098.50;5070526;28;20053;-63
2021/01/04 01:45:20;;;;;;;14.13;11.18;;;;;;;4.02;100.00;102091.25;5052479;28;20047;-63
2021/01/04 01:48:08;;;;;;;15.75;10.50;;;;;;;4.02;100.00;102095.81;5071815;28;20087;-63
2021/01/04 01:50:58;;;;;;;16.73;11.13;;;;;;;4.03;100.00;102097.50;5074968;28;20056;-62
2021/01/04 01:53:42;;;;;;;16.60;10.60;;;;;;;4.03;100.00;102101.03;5056629;28;20467;-63
2021/01/04 01:56:19;;;;;;;15.13;10.55;;;;;;;4.04;100.00;102104.59;5074720;28;20535;-63
2021/01/04 01:59:20;;;;;;;15.40;9.90;;;;;;;4.04;100.00;102104.59;5056646;28;20115;-63
2021/01/04 02:02:00;;;;;;;18.35;10.48;;;;;;;4.07;100.00;102098.84;4989616;28;20474;-65
2021/01/04 02:04:34;;;;;;;14.30;10.13;;;;;;;4.06;100.00;102108.81;5074638;28;20490;-65
2021/01/04 02:07:08;;;;;;;17.15;9.85;;;;;;;4.08;100.00;102105.94;5074604;28;20068;-65
2021/01/04 02:09:37;;;;;;;;;;;;;;;4.08;100.00;102105.94;5074843;28;20482;-64
2021/01/04 02:12:14;;;;;;;13.27;8.90;;;;;;;4.09;100.00;102113.03;5074439;28;20455;-66
2021/01/04 02:15:00;;;;;;;13.27;9.07;;;;;;;4.09;100.00;102104.91;5074400;28;20478;-65
2021/01/04 02:17:53;;;;;;;14.15;8.77;;;;;;;4.10;100.00;102114.72;5074381;28;20036;-65
2021/01/04 02:20:49;;;;;;;15.65;9.13;;;;;;;4.11;100.00;102116.41;5061909;28;20044;-66
2021/01/04 02:23:49;;;;;;;12.82;9.27;;;;;;;4.11;100.00;102121.81;5063159;28;20048;-65
2021/01/04 02:26:24;;;;;;;12.98;8.38;;;;;;;4.12;100.00;102118.94;5073993;28;20047;-65
2021/01/04 02:29:01;;;;;;;14.98;9.20;;;;;;;4.14;100.00;102132.28;5073751;28;20037;-66
2021/01/04 02:31:28;;;;;;;12.90;8.45;;;;;;;4.14;100.00;102126.88;5074240;28;20036;-65
2021/01/04 02:33:54;;;;;;;15.30;8.50;;;;;;;4.15;100.00;102123.16;5073776;28;20036;-66
2021/01/04 02:36:22;;;;;;;14.27;8.45;;;;;;;4.17;100.00;102140.09;5073916;28;20032;-66
2021/01/04 02:39:05;;;;;;;16.88;8.82;;;;;;;4.18;100.00;102139.06;5073573;28;20041;-66
2021/01/04 02:41:54;;;;;;;12.77;8.48;;;;;;;4.18;100.00;102131.81;5073458;28;20498;-65
2021/01/04 02:44:26;;;;;;;11.85;8.07;;;;;;;4.18;100.00;102133.66;5073288;28;20060;-65
2021/01/04 02:47:20;;;;;;;14.75;8.23;;;;;;;4.18;100.00;102129.09;5073579;28;20128;-65
2021/01/04 02:50:14;;;;;;;10.43;8.10;;;;;;;4.17;100.00;102126.56;5073502;28;20433;-65
2021/01/04 02:52:51;;;;;;;11.27;7.90;;;;;;;4.18;100.00;102122.84;5073564;28;20102;-63
2021/01/04 02:55:55;;;;;;;13.48;8.52;;;;;;;4.19;100.00;102135.34;5055467;28;20382;-63
2021/01/04 02:58:39;;;;;;;11.75;8.43;;;;;;;4.19;100.00;102136.19;4990363;28;20105;-63
2021/01/04 03:01:11;;;;;;;15.07;9.20;;;;;;;4.19;100.00;102132.66;5072640;28;20039;-62
2021/01/04 03:03:44;;;;;;;12.02;8.30;;;;;;;4.19;100.00;102135.34;5073206;28;20033;-63
2021/01/04 03:06:13;;;;;;;15.38;8.88;;;;;;;4.19;100.00;102133.50;5073082;28;20110;-63
2021/01/04 03:08:40;;;;;;;16.38;9.40;;;;;;;4.19;100.00;102130.78;5073197;28;20086;-63
2021/01/04 03:11:15;;;;;;;12.27;8.60;;;;;;;4.20;100.00;102131.63;5073086;28;20127;-64
2021/01/04 03:14:09;;;;;;;12.27;9.35;;;;;;;4.20;100.00;102126.22;5072958;28;20037;-63
2021/01/04 03:17:01;;;;;;;13.65;8.95;;;;;;;4.21;100.00;102117.09;5073004;28;20371;-63
2021/01/04 03:19:31;;;;;;;13.57;8.35;;;;;;;4.22;100.00;102124.19;5072981;28;20032;-63
2021/01/04 03:22:06;;;;;;;14.60;8.23;;;;;;;4.22;100.00;102119.63;5073034;28;20392;-65
2021/01/04 03:24:32;;;;;;;15.85;8.98;;;;;;;4.21;100.00;102112.53;5072872;28;20537;-65
2021/01/04 03:27:13;;;;;;;12.27;8.27;;;;;;;4.21;100.00;102114.38;5072688;28;20115;-65
2021/01/04 03:29:38;;;;;;;14.40;8.63;;;;;;;4.20;100.00;102110.84;5072554;28;20119;-65
2021/01/04 03:32:04;;;;;;;12.93;8.68;;;;;;;4.21;100.00;102108.97;5072698;28;20073;-65
2021/01/04 03:34:30;;;;;;;14.25;8.23;;;;;;;4.20;100.00;102110.00;5072589;28;20050;-65
2021/01/04 03:36:55;;;;;;;10.93;8.32;;;;;;;4.21;100.00;102106.28;5072745;28;20058;-65
2021/01/04 03:39:28;;;;;;;13.98;7.97;;;;;;;4.22;100.00;102113.38;5072475;28;20139;-66
2021/01/04 03:41:55;;;;;;;16.05;9.27;;;;;;;4.23;100.00;102109.66;5072607;28;20079;-65
2021/01/04 03:44:23;;;;;;;13.73;8.73;;;;;;;4.22;100.00;102108.81;5054173;28;20064;-65
2021/01/04 03:46:49;;;;;;;10.10;8.00;;;;;;;4.23;100.00;102109.66;5072318;28;20032;-66
2021/01/04 03:49:14;;;;;;;12.57;8.13;;;;;;;4.22;100.00;102113.38;5072222;28;20125;-64
2021/01/04 03:51:40;;;;;;;11.48;8.13;;;;;;;4.22;100.00;102113.38;5072391;28;20102;-65
2021/01/04 03:54:05;;;;;;;13.45;8.35;;;;;;;4.21;100.00;102115.22;5072280;28;20047;-65
2021/01/04 03:56:31;;;;;;;11.48;8.60;;;;;;;4.21;100.00;102108.97;5072315;28;20060;-65
2021/01/04 03:58:57;;;;;;;11.57;8.05;;;;;;;4.21;100.00;102107.13;5072135;28;20043;-66
2021/01/04 04:01:22;;;;;;;9.70;7.40;;;;;;;4.22;100.00;102105.25;5072337;28;20032;-65
2021/01/04 04:03:48;;;;;;;13.63;8.45;;;;;;;4.22;100.00;102113.38;5071985;28;20120;-66
2021/01/04 04:06:14;;;;;;;13.95;8.02;;;;;;;4.19;100.00;102092.09;5071978;28;20060;-65
2021/01/04 04:08:42;;;;;;;12.73;7.53;;;;;;;4.20;100.00;102110.00;5071912;28;20114;-65
2021/01/04 04:11:08;;;;;;;10.48;7.93;;;;;;;4.19;100.00;102114.56;5071171;28;20037;-66
2021/01/04 04:13:34;;;;;;;12.68;7.53;;;;;;;4.19;100.00;102113.72;5071884;28;20032;-66
2021/01/04 04:16:00;;;;;;;10.82;7.25;;;;;;;4.20;100.00;102110.00;5071874;28;20093;-65
2021/01/04 04:18:26;;;;;;;13.00;8.00;;;;;;;4.19;100.00;102108.31;5071630;28;20049;-66
2021/01/04 04:20:53;;;;;;;10.88;8.20;;;;;;;4.19;100.00;102109.16;5071509;28;20066;-65
2021/01/04 04:23:18;;;;;;;13.82;6.97;;;;;;;4.19;100.00;102102.91;5071556;28;20049;-66
2021/01/04 04:25:44;;;;;;;10.70;7.13;;;;;;;4.20;100.00;102099.19;5071660;28;20044;-66
2021/01/04 04:28:10;;;;;;;11.18;6.63;;;;;;;4.19;100.00;102095.63;5071647;28;20043;-66
2021/01/04 04:30:35;;;;;;;10.43;6.75;;;;;;;4.19;100.00;102092.09;5071595;28;20046;-65
2021/01/04 04:33:01;;;;;;;9.20;6.47;;;;;;;4.19;100.00;102097.50;5071592;28;20079;-65
2021/01/04 04:35:28;;;;;;;8.95;6.30;;;;;;;4.18;100.00;102095.81;5071386;28;20086;-65
2021/01/04 04:37:54;;;;;;;9.45;6.45;;;;;;;4.17;100.00;102091.41;5071379;28;20043;-65
2021/01/04 04:40:24;;;;;;;13.48;6.60;;;;;;;4.15;100.00;102096.97;5071276;28;20082;-65
2021/01/04 04:43:05;;;;;;;9.40;6.50;;;;;;;4.14;100.00;102089.03;5070940;28;20060;-66
2021/01/04 04:45:31;;;;;;;9.63;6.05;;;;;;;4.14;100.00;102099.84;5071303;28;20123;-65
2021/01/04 04:48:49;;;;;;;9.15;6.32;;;;;;;4.11;100.00;102111.00;5071262;28;20119;-65
2021/01/04 04:51:40;;;;;;;9.68;6.30;;;;;;;4.06;100.00;102103.41;5049813;28;20474;-65
2021/01/04 04:54:47;;;;;;;7.80;5.45;;;;;;;4.03;100.00;102111.00;5071076;28;20041;-65
2021/01/04 04:57:30;;;;;;;10.35;6.22;;;;;;;3.99;100.00;102109.63;5015853;28;20048;-66
2021/01/04 05:00:22;;;;;;;7.60;5.10;;;;;;;3.94;100.00;102110.97;5071266;28;20064;-66
2021/01/04 05:03:13;;;;;;;8.15;5.50;;;;;;;3.92;100.00;102107.59;5071135;28;20079;-65
2021/01/04 05:06:15;;;;;;;6.85;5.03;;;;;;;3.89;100.00;102101.69;5070675;28;20082;-65
2021/01/04 05:09:14;;;;;;;9.93;5.10;;;;;;;3.86;100.00;102108.28;5070855;28;20036;-66
2021/01/04 05:11:43;;;;;;;7.95;4.35;;;;;;;3.84;100.00;102099.50;5070915;28;20168;-66
2021/01/04 05:14:30;;;;;;;11.05;4.90;;;;;;;3.84;100.00;102110.31;5070932;28;20037;-65
2021/01/04 05:17:13;;;;;;;13.80;6.57;;;;;;;3.83;100.00;102105.09;5070951;28;20116;-65
2021/01/04 05:20:07;;;;;;;6.43;4.90;;;;;;;3.83;100.00;102103.22;5070679;28;20056;-66
2021/01/04 05:22:59;;;;;;;7.97;4.38;;;;;;;3.81;100.00;102110.63;5070420;28;20043;-66
2021/01/04 05:25:37;;;;;;;7.07;4.40;;;;;;;3.80;100.00;102103.53;5070663;28;20074;-65
2021/01/04 05:28:08;;;;;;;7.82;4.63;;;;;;;3.80;100.00;102106.22;5070707;28;20466;-65
2021/01/04 05:31:12;;;;;;;4.70;3.85;;;;;;;3.80;100.00;102108.94;5070739;28;20410;-65
2021/01/04 05:33:50;;;;;;;10.02;5.25;;;;;;;3.80;100.00;102108.94;4969569;28;20092;-65
2021/01/04 05:36:34;;;;;;;8.75;4.10;;;;;;;3.80;100.00;102108.94;5060709;28;20468;-65
2021/01/04 05:39:31;;;;;;;7.57;4.13;;;;;;;3.83;100.00;102124.00;5070509;28;20040;-65
2021/01/04 05:42:34;;;;;;;7.03;4.03;;;;;;;3.83;100.00;102118.59;5070652;28;20032;-64
2021/01/04 05:45:21;;;;;;;8.98;4.10;;;;;;;3.84;100.00;102114.88;5070531;28;20479;-65
2021/01/04 05:48:09;;;;;;;5.55;3.22;;;;;;;3.84;100.00;102114.88;5070741;28;20119;-65
2021/01/04 05:50:55;;;;;;;7.72;2.90;;;;;;;3.85;100.00;102128.22;5071118;28;20051;-65
2021/01/04 05:53:21;;;;;;;5.93;3.55;;;;;;;3.87;100.00;102126.19;5070594;28;20040;-65
2021/01/04 05:55:54;;;;;;;7.45;3.28;;;;;;;3.91;100.00;102132.94;5070544;28;20055;-66
2021/01/04 05:58:21;;;;;;;6.40;3.95;;;;;;;3.92;100.00;102129.22;5070425;28;20074;-66
2021/01/04 06:00:46;;;;;;;5.88;3.50;;;;;;;3.93;100.00;102130.06;5070438;28;20608;-63
2021/01/04 06:03:18;;;;;;;5.15;3.15;;;;;;;3.92;100.00;102131.09;5070459;28;20032;-65
2021/01/04 06:05:43;;;;;;;7.55;3.78;;;;;;;3.92;100.00;102128.38;5070482;28;20143;-65
2021/01/04 06:08:22;;;;;;;8.32;3.13;;;;;;;3.93;100.00;102136.31;5070462;28;20128;-65
2021/01/04 06:10:48;;;;;;;7.18;3.53;;;;;;;3.93;100.00;102128.22;5070336;28;20036;-65
2021/01/04 06:13:18;;;;;;;4.95;2.92;;;;;;;3.94;100.00;102131.75;5070241;28;20039;-65
2021/01/04 06:15:45;;;;;;;6.68;2.78;;;;;;;3.92;100.00;102129.22;5070288;28;20043;-65
2021/01/04 06:18:19;;;;;;;5.22;2.83;;;;;;;3.92;100.00;102128.38;5070663;28;20426;-66
2021/01/04 06:20:45;;;;;;;5.75;2.90;;;;;;;3.89;100.00;102129.56;5070579;28;20079;-65
2021/01/04 06:23:28;;;;;;;18.20;3.38;;;;;;;3.90;100.00;102131.25;5070588;28;20540;-65
2021/01/04 06:26:11;;;;;;;6.75;2.85;;;;;;;3.89;100.00;102137.69;5070246;28;20040;-64
2021/01/04 06:28:49;;;;;;;5.53;2.20;;;;;;;3.91;100.00;102122.13;5070062;28;20036;-65
2021/01/04 06:31:25;;;;;;;6.45;3.25;;;;;;;3.93;100.00;102147.13;5070198;28;20390;-65
2021/01/04 06:33:57;;;;;;;4.63;2.95;;;;;;;3.94;100.00;102142.56;5070057;28;20474;-65
2021/01/04 06:36:23;;;;;;;8.43;3.63;;;;;;;3.94;100.00;102154.22;5073535;28;20024;-66
2021/01/04 06:38:50;;;;;;;6.50;3.50;;;;;;;3.96;100.00;102166.75;5073731;28;20056;-65
2021/01/04 06:41:17;;;;;;;6.55;3.45;;;;;;;3.96;100.00;102143.25;5073753;28;20097;-65
2021/01/04 06:43:43;;;;;;;5.65;3.55;;;;;;;3.97;100.00;102158.47;5073378;28;20044;-65
2021/01/04 06:46:36;;;;;;;5.97;3.58;;;;;;;3.99;100.00;102171.81;5073516;28;20029;-65
2021/01/04 06:49:11;;;;;;;7.10;3.88;;;;;;;3.99;100.00;102171.81;5073440;28;20032;-65
2021/01/04 06:52:14;;;;;;;7.93;4.13;;;;;;;3.97;100.00;102169.28;5073595;28;20043;-65
2021/01/04 06:55:26;;;;;;;8.32;3.83;;;;;;;3.97;100.00;102174.69;5073570;28;20082;-65
2021/01/04 06:58:28;;;;;;;4.07;2.97;;;;;;;3.97;100.00;102173.84;5055537;28;20123;-66
2021/01/04 07:01:02;;;;;;;9.02;3.20;;;;;;;3.94;100.00;102170.44;5073360;28;20035;-65
2021/01/04 07:04:08;;;;;;;6.90;3.30;;;;;;;3.98;100.00;102180.94;5073175;28;20486;-65
2021/01/04 07:06:39;;;;;;;;;;;;;;;3.97;100.00;102179.25;5073615;28;20037;-66
2021/01/04 07:09:37;;;;;;;5.93;3.17;;;;;;;3.98;100.00;102180.94;5073102;28;20293;-66
2021/01/04 07:12:32;;;;;;;7.25;3.17;;;;;;;3.98;100.00;102194.44;5073319;28;20382;-65
2021/01/04 07:15:16;;;;;;;;;;;;;;;4.00;100.00;102195.16;5073560;28;20036;-66
2021/01/04 07:18:20;;;;;;;5.68;2.90;;;;;;;3.99;100.00;102188.88;5072984;28;19927;-65
2021/01/04 07:21:06;;;;;;;5.60;2.80;;;;;;;3.98;100.00;102200.69;5072933;28;20044;-65
2021/01/04 07:23:46;;;;;;;9.38;3.25;;;;;;;3.97;100.00;102206.28;5073093;28;20079;-65
2021/01/04 07:26:30;;;;;;;7.20;2.85;;;;;;;3.94;100.00;102208.28;5072846;28;20036;-66
2021/01/04 07:29:30;;;;;;;6.10;2.55;;;;;;;3.95;100.00;102209.13;5072812;28;20028;-65
2021/01/04 07:32:08;;;;;;;4.93;2.50;;;;;;;3.94;100.00;102216.41;5072812;28;20032;-65
2021/01/04 07:34:41;;;;;;;6.88;2.60;;;;;;;3.93;100.00;102206.59;5072625;28;20032;-66
2021/01/04 07:37:24;;;;;;;7.00;2.42;;;;;;;3.91;100.00;102214.03;5072711;28;20429;-65
2021/01/04 07:39:58;;;;;;;6.57;2.85;;;;;;;3.88;100.00;102214.38;5072688;28;20048;-65
2021/01/04 07:42:49;;;;;;;5.13;2.20;;;;;;;3.85;100.00;102220.13;5072590;28;20029;-65
2021/01/04 07:45:31;;;;;;;5.85;2.22;;;;;;;3.83;100.00;102224.84;5072233;28;20032;-66
2021/01/04 07:48:29;;;;;;;6.20;2.55;;;;;;;3.79;100.00;102215.34;5072502;28;20039;-65
2021/01/04 07:51:32;;;;;;;6.47;2.30;;;;;;;3.76;100.00;102221.06;4985129;28;20075;-65
2021/01/04 07:54:13;;;;;;;4.30;2.30;;;;;;;3.75;100.00;102213.13;5072134;28;20040;-65
2021/01/04 07:57:00;;;;;;;6.63;2.58;;;;;;;3.74;100.00;102211.44;5072477;28;20406;-65
2021/01/04 07:59:58;;;;;;;5.22;2.15;;;;;;;3.76;100.00;102217.53;5072270;28;20098;-65
2021/01/04 08:02:45;;;;;;;8.55;3.08;;;;;;;3.76;100.00;102221.06;5072073;28;20025;-65
2021/01/04 08:06:02;;;;;;;5.00;2.92;;;;;;;3.75;100.00;102213.13;5071966;28;20032;-65
2021/01/04 08:09:03;;;;;;;7.47;2.33;;;;;;;3.68;100.00;102209.41;5029625;28;20080;-65
2021/01/04 08:11:45;;;;;;;5.32;2.60;;;;;;;3.65;100.00;102212.44;5071908;28;20039;-65
2021/01/04 08:14:45;;;;;;;8.88;2.97;;;;;;;3.63;100.00;102215.28;5071828;28;20550;-65
2021/01/04 08:17:21;;;;;;;7.43;3.33;;;;;;;3.63;100.00;102217.97;5071965;28;20044;-65
2021/01/04 08:19:52;;;;;;;7.25;2.92;;;;;;;3.63;100.00;102212.59;5071753;28;20037;-65
2021/01/04 08:22:20;;;;;;;9.23;2.95;;;;;;;3.61;100.00;102206.50;5071662;28;20043;-65
2021/01/04 08:24:49;;;;;;;6.63;2.65;;;;;;;3.60;100.00;102215.63;5071570;28;20538;-65
2021/01/04 08:27:52;;;;;;;4.05;2.40;;;;;;;3.57;100.00;102221.34;5053482;28;20067;-65
2021/01/04 08:30:21;;;;;;;6.65;2.38;;;;;;;3.54;100.00;102227.09;5071563;28;20040;-65
2021/01/04 08:32:58;;;;;;;6.72;3.10;;;;;;;3.52;100.00;102218.28;5071641;28;20052;-65
2021/01/04 08:35:27;;;;;;;6.45;2.45;;;;;;;3.52;100.00;102221.00;5071538;28;20532;-65
2021/01/04 08:37:56;;;;;;;6.00;2.72;;;;;;;3.52;100.00;102221.00;5071375;28;20085;-65
2021/01/04 08:40:30;;;;;;;5.00;2.72;;;;;;;3.51;100.00;102227.41;5053223;28;20036;-65
2021/01/04 08:43:07;;;;;;;4.90;2.50;;;;;;;3.53;100.00;102217.28;5071051;28;20052;-65
2021/01/04 08:45:45;;;;;;;5.20;2.38;;;;;;;3.55;100.00;102229.63;5071278;28;20032;-65
2021/01/04 08:48:19;;;;;;;5.40;2.70;;;;;;;3.59;100.00;102227.44;5069821;28;20044;-65
2021/01/04 08:50:59;;;;;;;7.57;2.25;;;;;;;3.67;100.00;102223.94;5060156;28;20032;-65
2021/01/04 08:53:25;;;;;;;3.78;2.25;;;;;;;3.74;100.00;102222.25;5071089;28;20032;-64
2021/01/04 08:55:54;;;;;;;7.10;2.25;;;;;;;3.81;100.00;102224.13;5067258;28;20513;-64
2021/01/04 08:58:19;;;;;;;7.82;2.53;;;;;;;3.89;100.00;102226.03;5069464;28;20052;-64
2021/01/04 09:01:11;;;;;;;5.22;2.00;;;;;;;3.96;100.00;102220.78;5070442;28;20041;-64
2021/01/04 09:03:38;;;;;;;9.05;2.08;;;;;;;4.01;100.00;102224.72;5071137;28;20117;-66
2021/01/04 09:06:27;;;;;;;7.90;2.42;;;;;;;4.08;100.00;102235.72;5070585;28;20405;-68
2021/01/04 09:09:30;;;;;;;3.72;1.98;;;;;;;4.11;100.00;102236.22;5070613;28;20107;-63
2021/01/04 09:12:25;;;;;;;7.22;2.30;;;;;;;4.13;100.00;102225.22;5070344;28;20419;-62
2021/01/04 09:14:59;;;;;;;4.07;2.17;;;;;;;4.17;100.00;102229.31;5047597;28;20139;-61
2021/01/04 09:18:03;;;;;;;7.32;2.30;;;;;;;4.17;100.00;102227.47;5057791;28;20024;-66
2021/01/04 09:20:48;;;;;;;5.35;2.17;;;;;;;4.20;100.00;102228.97;5057681;28;20059;-61
2021/01/04 09:23:25;;;;;;;7.88;2.40;;;;;;;4.20;100.00;102223.56;5070125;28;20077;-61
2021/01/04 09:25:54;;;;;;;15.90;3.00;;;;;;;4.20;100.00;102228.97;5070697;28;20422;-68
2021/01/04 09:28:23;;;;;;;5.03;2.70;;;;;;;4.20;100.00;102229.81;5070270;28;20071;-65
2021/01/04 09:30:51;;;;;;;3.85;1.88;;;;;;;4.23;100.00;102223.22;5070257;28;20033;-69
2021/01/04 09:33:19;;;;;;;7.53;2.97;;;;;;;4.25;100.00;102226.63;5068519;28;20066;-66
2021/01/04 09:35:46;;;;;;;6.53;2.28;;;;;;;4.27;100.00;102226.44;5071362;28;20115;-63
2021/01/04 09:38:25;;;;;;;5.47;2.33;;;;;;;4.28;100.00;102237.09;5053838;28;20032;-70
2021/01/04 09:41:02;;;;;;;7.72;2.10;;;;;;;4.30;100.00;102229.66;5070329;28;20486;-68
2021/01/04 09:43:30;;;;;;;11.25;2.53;;;;;;;4.29;100.00;102233.38;5047068;28;20403;-67
2021/01/04 09:46:25;;;;;;;6.60;2.83;;;;;;;4.33;100.00;102234.72;5070106;28;20386;-69
2021/01/04 09:49:02;;;;;;;13.15;2.58;;;;;;;4.34;100.00;102224.75;5061109;28;20045;-68
2021/01/04 09:51:31;;;;;;;6.90;2.22;;;;;;;4.36;100.00;102234.41;5070315;28;20036;-65
2021/01/04 09:54:01;;;;;;;5.15;2.13;;;;;;;4.38;100.00;102237.78;5066536;28;20037;-63
2021/01/04 09:56:34;;;;;;;9.13;2.05;;;;;;;4.38;100.00;102236.94;5050527;28;20035;-66
2021/01/04 09:59:06;;;;;;;4.70;1.90;;;;;;;4.38;100.00;102243.22;5061972;28;20127;-66
2021/01/04 10:01:41;;;;;;;7.07;2.55;;;;;;;4.39;100.00;102250.31;5070004;28;20467;-67
2021/01/04 10:04:07;;;;;;;5.28;1.80;;;;;;;4.41;100.00;102245.56;5069495;28;20032;-64
2021/01/04 10:06:35;;;;;;;6.35;2.38;;;;;;;4.42;100.00;102236.44;5073652;28;20367;-64
2021/01/04 10:09:06;;;;;;;5.10;2.22;;;;;;;4.44;100.00;102239.81;5067353;28;20825;-64
2021/01/04 10:11:31;;;;;;;4.28;2.30;;;;;;;4.48;100.00;102251.16;5077696;28;20028;-64
2021/01/04 10:14:06;;;;;;;7.75;2.28;;;;;;;4.49;100.00;102250.97;5076636;28;20071;-62
2021/01/04 10:16:33;;;;;;;11.45;3.15;;;;;;;4.49;100.00;102245.56;5077037;28;20580;-64
2021/01/04 10:19:00;;;;;;;5.13;2.00;;;;;;;4.57;100.00;102252.03;5085321;28;20105;-68
2021/01/04 10:21:51;;;;;;;8.27;2.35;;;;;;;4.60;100.00;102254.38;5085902;28;20034;-65
2021/01/04 10:24:24;;;;;;;7.03;2.30;;;;;;;4.66;100.00;102251.00;5073173;28;20031;-63
2021/01/04 10:26:51;;;;;;;6.50;2.33;;;;;;;4.75;100.00;102244.56;5079853;28;20463;-64
2021/01/04 10:29:21;;;;;;;6.20;2.03;;;;;;;4.84;100.00;102243.53;5087086;28;20046;-66
2021/01/04 10:31:50;;;;;;;4.60;1.80;;;;;;;4.92;100.00;102234.59;5094151;28;20131;-65
2021/01/04 10:34:19;;;;;;;6.38;2.25;;;;;;;4.96;100.00;102242.19;5093866;28;20046;-65
2021/01/04 10:36:58;;;;;;;6.25;1.83;;;;;;;5.02;100.00;102241.50;5093854;28;20444;-65
2021/01/04 10:39:35;;;;;;;3.70;2.30;;;;;;;5.10;100.00;102243.34;5093952;28;20040;-67
2021/01/04 10:42:08;;;;;;;5.40;2.03;;;;;;;5.16;100.00;102226.41;5093986;28;20085;-66
2021/01/04 10:44:34;;;;;;;5.50;2.25;;;;;;;5.22;100.00;102231.16;5093639;28;20044;-66
2021/01/04 10:46:59;;;;;;;4.38;1.83;;;;;;;5.28;100.00;102229.59;5093723;28;20486;-65
2021/01/04 10:49:30;;;;;;;12.82;2.30;;;;;;;5.34;100.00;102234.31;5093687;28;20044;-66
2021/01/04 10:51:56;;;;;;;3.75;2.30;;;;;;;5.42;100.00;102226.19;5093686;28;20055;-66
2021/01/04 10:54:40;;;;;;;10.18;2.00;;;;;;;5.50;100.00;102222.59;5093669;28;20436;-66
2021/01/04 10:57:11;;;;;;;7.60;2.53;;;;;;;5.56;100.00;102222.75;5093770;28;20078;-66
2021/01/04 10:59:48;;;;;;;7.60;2.15;;;;;;;5.64;100.00;102224.56;5093352;28;20474;-67
2021/01/04 11:02:14;;;;;;;10.75;2.45;;;;;;;5.70;100.00;102235.53;5089837;28;20498;-65
2021/01/04 11:04:40;;;;;;;6.45;1.77;;;;;;;5.79;100.00;102227.41;5092821;28;20066;-65
2021/01/04 11:07:13;;;;;;;3.35;1.80;;;;;;;5.84;100.00;102214.97;5084762;28;20432;-65
2021/01/04 11:09:41;;;;;;;6.05;1.98;;;;;;;5.89;100.00;102226.13;5072934;28;20035;-68
2021/01/04 11:12:23;;;;;;;4.70;2.40;;;;;;;5.99;100.00;102231.38;5072863;28;20032;-67
2021/01/04 11:15:04;;;;;;;6.25;1.70;;;;;;;6.06;100.00;102221.50;5072941;28;20055;-66
2021/01/04 11:17:33;;;;;;;6.35;1.90;;;;;;;6.16;100.00;102221.28;5073052;28;20051;-66
2021/01/04 11:20:10;;;;;;;6.60;2.10;;;;;;;6.24;100.00;102205.78;5072550;28;20398;-68
2021/01/04 11:22:35;;;;;;;5.72;1.58;;;;;;;6.38;100.00;102216.88;5072820;28;20482;-66
2021/01/04 11:25:02;;;;;;;9.65;2.15;;;;;;;6.29;100.00;102195.25;5072722;28;20076;-67
2021/01/04 11:27:27;;;;;;;6.47;2.50;;;;;;;6.24;100.00;102200.34;5072961;28;20035;-67
2021/01/04 11:29:53;;;;;;;8.75;1.88;;;;;;;6.19;100.00;102197.34;5072774;28;20394;-67
2021/01/04 11:32:21;;;;;;;6.63;1.85;;;;;;;6.17;100.00;102195.84;5072696;28;20048;-67
2021/01/04 11:34:52;;;;;;;5.43;1.63;;;;;;;6.18;100.00;102195.66;5072558;28;20039;-67
2021/01/04 11:37:20;;;;;;;15.65;3.20;;;;;;;6.24;100.00;102188.66;5054645;28;20032;-66
2021/01/04 11:39:45;;;;;;;5.68;2.38;;;;;;;6.23;100.00;102176.97;5085971;28;20082;-68
2021/01/04 11:42:11;;;;;;;6.25;1.60;;;;;;;6.22;100.00;102186.13;5093106;28;20470;-68
2021/01/04 11:44:38;;;;;;;6.63;1.70;;;;;;;6.20;100.00;102171.06;5091810;28;20040;-66
2021/01/04 11:47:04;;;;;;;4.10;1.50;;;;;;;6.17;100.00;102183.13;5092586;28;20134;-67
2021/01/04 11:49:32;;;;;;;4.15;1.88;;;;;;;6.16;100.00;102181.44;5092311;28;20046;-67
2021/01/04 11:51:57;;;;;;;6.03;1.75;;;;;;;6.18;100.00;102182.09;5092623;28;20393;-66
2021/01/04 11:54:23;;;;;;;3.28;1.38;;;;;;;6.21;100.00;102173.59;5092529;28;20043;-64
2021/01/04 11:56:49;;;;;;;6.80;1.52;;;;;;;6.21;100.00;102161.91;5092400;28;20063;-63
2021/01/04 11:59:16;;;;;;;8.43;2.47;;;;;;;6.22;100.00;102163.56;5092417;28;20038;-64
2021/01/04 12:01:42;;;;;;;8.20;1.88;;;;;;;6.20;100.00;102166.47;5092435;28;20070;-65
2021/01/04 12:04:08;;;;;;;6.25;2.40;;;;;;;6.22;100.00;102159.00;5092188;28;20040;-64
2021/01/04 12:06:34;;;;;;;3.03;1.45;;;;;;;6.25;100.00;102155.94;5092160;28;20090;-66
2021/01/04 12:09:00;;;;;;;7.90;1.60;;;;;;;6.24;100.00;102140.66;5092233;28;20314;-65
2021/01/04 12:11:34;;;;;;;10.13;1.92;;;;;;;6.26;100.00;102144.06;5092149;28;20398;-65